Time;durP1;ratioP1;P1;durP2;ratioP2;P2;SDS_P1;SDS_P2;PMS_P1;PMS_P2;Temp;Humidity;BMP_temperature;BMP_pressure;BME280_temperature;BME280_humidity;BME280_pressure;Samples;Min_cycle;Max_cycle;Signal;HPM_P1;HPM_P2
2022/10/07 00:01:11;;;;;;;3.20;2.20;;;;;;;;;;5047598;28;20548;-75
2022/10/07 00:03:37;;;;;;;5.50;2.30;;;;;;;;;;5031781;28;20517;-75
2022/10/07 00:06:04;;;;;;;2.53;2.23;;;;;;;;;;5046652;28;20475;-75
2022/10/07 00:08:30;;;;;;;5.40;2.70;;;;;;;;;;5043199;28;20508;-75
2022/10/07 00:10:57;;;;;;;2.60;2.40;;;;;;;;;;5047105;28;20426;-75
2022/10/07 00:13:23;;;;;;;7.13;2.40;;;;;;;;;;5043561;28;20218;-75
2022/10/07 00:15:49;;;;;;;4.27;2.77;;;;;;;;;;5047453;28;20433;-75
2022/10/07 00:18:14;;;;;;;2.70;2.50;;;;;;;;;;5043453;28;20480;-75
2022/10/07 00:20:40;;;;;;;8.97;3.07;;;;;;;;;;5046634;28;20545;-75
2022/10/07 00:23:08;;;;;;;3.33;2.47;;;;;;;;;;5042053;28;20441;-75
2022/10/07 00:25:37;;;;;;;6.10;2.70;;;;;;;;;;5047012;28;20409;-75
2022/10/07 00:28:03;;;;;;;3.80;2.30;;;;;;;;;;5043033;28;20472;-75
2022/10/07 00:30:29;;;;;;;2.70;2.50;;;;;;;;;;5046746;28;21036;-75
2022/10/07 00:32:55;;;;;;;5.33;3.00;;;;;;;;;;5043352;28;20200;-75
2022/10/07 00:35:21;;;;;;;7.33;2.73;;;;;;;;;;5046816;28;20768;-75
2022/10/07 00:37:47;;;;;;;3.70;2.43;;;;;;;;;;5042669;28;20803;-75
2022/10/07 00:40:13;;;;;;;7.43;2.67;;;;;;;;;;5046673;28;20441;-75
2022/10/07 00:42:40;;;;;;;5.23;3.50;;;;;;;;;;5041186;28;20933;-75
2022/10/07 00:45:15;;;;;;;3.63;3.30;;;;;;;;;;5043432;28;20421;-75
2022/10/07 00:47:44;;;;;;;7.13;2.80;;;;;;;;;;5026481;28;20440;-75
2022/10/07 00:50:12;;;;;;;4.77;2.57;;;;;;;;;;5046573;28;20405;-75
2022/10/07 00:52:40;;;;;;;2.57;2.47;;;;;;;;;;5042595;28;20456;-75
2022/10/07 00:55:08;;;;;;;5.00;3.07;;;;;;;;;;5046979;28;20394;-75
2022/10/07 00:57:36;;;;;;;8.25;3.00;;;;;;;;;;5043092;28;20849;-75
2022/10/07 01:00:04;;;;;;;3.13;2.58;;;;;;;;;;5047804;28;20580;-75
2022/10/07 01:02:30;;;;;;;8.23;3.10;;;;;;;;;;5059454;28;20183;-75
2022/10/07 01:04:58;;;;;;;2.57;2.40;;;;;;;;;;5066474;28;20410;-75
2022/10/07 01:07:24;;;;;;;4.47;2.77;;;;;;;;;;5044058;28;20426;-75
2022/10/07 01:09:51;;;;;;;3.53;2.87;;;;;;;;;;5026444;28;20431;-75
2022/10/07 01:12:26;;;;;;;3.13;2.77;;;;;;;;;;5045202;28;20982;-73
2022/10/07 01:15:11;;;;;;;4.57;2.70;;;;;;;;;;5026402;28;20398;-74
2022/10/07 01:18:01;;;;;;;2.97;2.80;;;;;;;;;;5041564;28;20650;-73
2022/10/07 01:20:32;;;;;;;3.23;2.77;;;;;;;;;;5046580;28;20484;-74
2022/10/07 01:23:04;;;;;;;3.53;2.97;;;;;;;;;;5043655;28;20502;-75
2022/10/07 01:25:43;;;;;;;3.20;3.00;;;;;;;;;;5047704;28;20422;-75
2022/10/07 01:28:13;;;;;;;3.57;3.23;;;;;;;;;;5042197;28;20182;-75
2022/10/07 01:30:40;;;;;;;3.50;3.20;;;;;;;;;;5045925;28;20492;-75
2022/10/07 01:33:11;;;;;;;4.00;3.00;;;;;;;;;;5042651;28;20443;-75
2022/10/07 01:35:41;;;;;;;5.63;3.00;;;;;;;;;;5046061;28;20405;-75
2022/10/07 01:38:09;;;;;;;3.90;3.50;;;;;;;;;;5042032;28;20771;-75
2022/10/07 01:40:47;;;;;;;3.73;3.43;;;;;;;;;;5045675;28;20467;-75
2022/10/07 01:43:15;;;;;;;4.33;3.60;;;;;;;;;;5040412;28;20881;-75
2022/10/07 01:45:41;;;;;;;4.77;2.53;;;;;;;;;;5043808;28;20946;-74
2022/10/07 01:48:07;;;;;;;3.87;3.07;;;;;;;;;;5042608;28;20510;-74
2022/10/07 01:53:52;;;;;;;6.30;3.43;;;;;;;;;;5031733;28;20795;-74
2022/10/07 01:56:27;;;;;;;6.80;3.83;;;;;;;;;;5025686;28;20422;-74
2022/10/07 01:58:53;;;;;;;7.57;3.50;;;;;;;;;;5039690;28;20558;-74
2022/10/07 02:01:28;;;;;;;8.13;3.30;;;;;;;;;;5045434;28;20540;-74
2022/10/07 02:03:57;;;;;;;4.63;3.57;;;;;;;;;;5034558;28;20436;-74
2022/10/07 02:06:32;;;;;;;4.00;3.40;;;;;;;;;;5045313;28;20476;-74
2022/10/07 02:09:01;;;;;;;9.83;3.80;;;;;;;;;;5030576;28;20434;-74
2022/10/07 02:11:30;;;;;;;5.77;3.47;;;;;;;;;;5045152;28;20914;-74
2022/10/07 02:14:13;;;;;;;6.80;3.70;;;;;;;;;;5041368;28;20473;-74
2022/10/07 02:16:41;;;;;;;4.27;3.43;;;;;;;;;;5045722;28;20457;-76
2022/10/07 02:19:28;;;;;;;14.10;4.07;;;;;;;;;;5045681;28;20715;-73
2022/10/07 02:21:56;;;;;;;7.60;4.27;;;;;;;;;;5029354;28;21280;-74
2022/10/07 02:24:23;;;;;;;6.37;3.57;;;;;;;;;;5045706;28;20440;-74
2022/10/07 02:26:51;;;;;;;5.43;4.00;;;;;;;;;;5049283;28;20453;-74
2022/10/07 02:29:19;;;;;;;3.23;2.60;;;;;;;;;;5032706;28;20797;-73
2022/10/07 02:31:47;;;;;;;5.23;4.30;;;;;;;;;;5048669;28;20468;-74
2022/10/07 02:34:14;;;;;;;4.43;3.80;;;;;;;;;;5043823;28;20717;-74
2022/10/07 02:36:44;;;;;;;4.27;3.87;;;;;;;;;;5048888;28;20425;-74
2022/10/07 02:39:10;;;;;;;4.33;3.07;;;;;;;;;;5032990;28;20446;-74
2022/10/07 02:41:43;;;;;;;6.70;3.58;;;;;;;;;;5046860;28;20480;-74
2022/10/07 02:44:09;;;;;;;4.63;4.10;;;;;;;;;;5038274;28;20746;-74
2022/10/07 02:46:42;;;;;;;4.33;4.03;;;;;;;;;;5048727;28;20430;-74
2022/10/07 02:49:10;;;;;;;8.50;3.47;;;;;;;;;;5037683;28;21022;-74
2022/10/07 02:51:39;;;;;;;4.00;3.67;;;;;;;;;;5048822;28;20498;-74
2022/10/07 02:54:05;;;;;;;5.57;4.03;;;;;;;;;;5044983;28;20438;-74
2022/10/07 02:56:33;;;;;;;4.37;3.97;;;;;;;;;;5046876;28;20440;-75
2022/10/07 02:59:04;;;;;;;4.97;4.47;;;;;;;;;;5043748;28;20746;-74
2022/10/07 03:01:31;;;;;;;7.93;4.17;;;;;;;;;;5048495;28;20819;-75
2022/10/07 03:03:57;;;;;;;4.13;3.50;;;;;;;;;;5045530;28;20792;-75
2022/10/07 03:06:24;;;;;;;4.40;4.00;;;;;;;;;;5063434;28;20414;-74
2022/10/07 03:08:50;;;;;;;4.43;4.10;;;;;;;;;;5066141;28;20429;-74
2022/10/07 03:11:16;;;;;;;9.57;4.37;;;;;;;;;;5048361;28;20437;-76
2022/10/07 03:13:43;;;;;;;4.90;4.50;;;;;;;;;;5044352;28;20552;-76
2022/10/07 03:16:09;;;;;;;6.27;4.80;;;;;;;;;;5048545;28;20434;-74
2022/10/07 03:18:35;;;;;;;8.37;5.33;;;;;;;;;;5044520;28;20958;-75
2022/10/07 03:21:01;;;;;;;9.40;6.07;;;;;;;;;;5048140;28;20456;-76
2022/10/07 03:23:28;;;;;;;7.00;5.30;;;;;;;;;;5044259;28;20954;-76
2022/10/07 03:25:55;;;;;;;10.57;4.70;;;;;;;;;;5048075;28;20418;-76
2022/10/07 03:28:22;;;;;;;6.13;5.50;;;;;;;;;;5043770;28;20446;-76
2022/10/07 03:30:48;;;;;;;9.80;6.53;;;;;;;;;;5048200;28;20413;-75
2022/10/07 03:33:15;;;;;;;8.17;5.30;;;;;;;;;;5043836;28;20441;-75
2022/10/07 03:35:41;;;;;;;5.17;4.70;;;;;;;;;;5047634;28;20459;-77
2022/10/07 03:38:07;;;;;;;5.93;5.43;;;;;;;;;;5044128;28;21142;-78
2022/10/07 03:40:39;;;;;;;7.33;4.10;;;;;;;;;;5047673;28;20456;-76
2022/10/07 03:43:06;;;;;;;9.77;5.90;;;;;;;;;;5044499;28;20448;-75
2022/10/07 03:45:34;;;;;;;5.90;3.97;;;;;;;;;;5042660;28;20393;-77
2022/10/07 03:47:59;;;;;;;7.60;5.43;;;;;;;;;;5043702;28;20994;-75
2022/10/07 03:50:25;;;;;;;5.90;5.27;;;;;;;;;;5047339;28;20481;-75
2022/10/07 03:52:52;;;;;;;5.07;4.57;;;;;;;;;;5045431;28;20429;-74
2022/10/07 03:55:18;;;;;;;10.20;5.97;;;;;;;;;;5045532;28;20508;-75
2022/10/07 03:57:53;;;;;;;6.77;4.50;;;;;;;;;;5048325;28;20432;-75
2022/10/07 04:00:21;;;;;;;6.87;4.70;;;;;;;;;;5043029;28;20429;-74
2022/10/07 04:02:47;;;;;;;8.57;5.53;;;;;;;;;;5046252;28;20438;-74
2022/10/07 04:05:17;;;;;;;6.17;5.57;;;;;;;;;;5042271;28;20454;-74
2022/10/07 04:07:44;;;;;;;5.83;5.20;;;;;;;;;;5047120;28;20487;-74
2022/10/07 04:10:10;;;;;;;6.63;5.60;;;;;;;;;;5043729;28;20452;-74
2022/10/07 04:12:36;;;;;;;6.23;5.40;;;;;;;;;;5046693;28;20454;-75
2022/10/07 04:15:02;;;;;;;9.60;6.47;;;;;;;;;;5043599;28;20434;-75
2022/10/07 04:17:28;;;;;;;6.50;4.80;;;;;;;;;;5046739;28;20922;-75
2022/10/07 04:19:54;;;;;;;5.33;4.80;;;;;;;;;;5026251;28;20447;-75
2022/10/07 04:22:20;;;;;;;9.53;5.27;;;;;;;;;;5046450;28;20468;-76
2022/10/07 04:25:32;;;;;;;6.43;4.57;;;;;;;;;;5043170;28;20699;-75
2022/10/07 04:27:32;;;;;;;11.70;5.30;;;;;;;;;;5046835;28;20416;-77
2022/10/07 04:29:58;;;;;;;8.60;4.70;;;;;;;;;;5028212;28;20451;-77
2022/10/07 04:32:24;;;;;;;6.13;5.10;;;;;;;;;;5044186;28;20460;-76
2022/10/07 04:34:50;;;;;;;5.70;4.70;;;;;;;;;;5043851;28;20496;-76
2022/10/07 04:37:16;;;;;;;10.30;5.20;;;;;;;;;;5046528;28;20437;-76
2022/10/07 04:39:42;;;;;;;6.07;5.07;;;;;;;;;;5029855;28;20451;-76
2022/10/07 04:43:17;;;;;;;12.60;5.60;;;;;;;;;;5045418;28;20465;-76
2022/10/07 04:44:54;;;;;;;6.20;5.60;;;;;;;;;;5036746;28;20434;-77
2022/10/07 04:47:20;;;;;;;7.90;6.10;;;;;;;;;;5046975;28;20417;-76
2022/10/07 04:49:46;;;;;;;8.07;5.40;;;;;;;;;;5029306;28;20975;-77
2022/10/07 04:52:12;;;;;;;5.63;4.80;;;;;;;;;;5045794;28;20434;-76
2022/10/07 04:54:38;;;;;;;6.70;5.13;;;;;;;;;;5038467;28;20497;-77
2022/10/07 04:57:04;;;;;;;14.57;5.57;;;;;;;;;;5032886;28;20450;-76
2022/10/07 04:59:31;;;;;;;5.47;5.07;;;;;;;;;;5041656;28;20665;-77
2022/10/07 05:01:57;;;;;;;7.87;5.13;;;;;;;;;;5046393;28;20457;-77
2022/10/07 05:04:23;;;;;;;5.83;4.87;;;;;;;;;;5042102;28;20815;-76
2022/10/07 05:06:49;;;;;;;10.30;4.37;;;;;;;;;;5037644;28;20541;-75
2022/10/07 05:09:15;;;;;;;8.00;5.67;;;;;;;;;;5042116;28;20434;-75
2022/10/07 05:11:41;;;;;;;6.10;4.90;;;;;;;;;;5032550;28;20646;-74
2022/10/07 05:14:06;;;;;;;5.77;4.43;;;;;;;;;;5050680;28;20444;-74
2022/10/07 05:16:32;;;;;;;10.30;5.57;;;;;;;;;;5067762;28;20969;-73
2022/10/07 05:18:58;;;;;;;9.60;5.30;;;;;;;;;;5048107;28;20621;-74
2022/10/07 05:21:24;;;;;;;9.27;5.57;;;;;;;;;;5045492;28;20493;-74
2022/10/07 05:23:50;;;;;;;6.60;5.80;;;;;;;;;;5042206;28;20866;-74
2022/10/07 05:26:16;;;;;;;6.90;5.93;;;;;;;;;;5045492;28;20483;-74
2022/10/07 05:28:44;;;;;;;6.83;5.53;;;;;;;;;;5041478;28;20429;-75
2022/10/07 05:31:11;;;;;;;14.40;5.17;;;;;;;;;;5045542;28;20496;-74
2022/10/07 05:33:38;;;;;;;11.50;6.00;;;;;;;;;;5042030;28;20441;-74
2022/10/07 05:36:08;;;;;;;8.03;5.73;;;;;;;;;;5045411;28;20700;-76
2022/10/07 05:38:34;;;;;;;7.20;5.57;;;;;;;;;;5041460;28;20792;-75
2022/10/07 05:41:03;;;;;;;8.83;5.40;;;;;;;;;;5045191;28;20496;-75
2022/10/07 05:43:29;;;;;;;8.80;5.60;;;;;;;;;;5041707;28;20429;-75
2022/10/07 05:45:59;;;;;;;9.33;5.90;;;;;;;;;;5045145;28;20549;-74
2022/10/07 05:48:27;;;;;;;5.80;5.20;;;;;;;;;;5041344;28;20453;-74
2022/10/07 05:50:53;;;;;;;5.40;5.00;;;;;;;;;;5045399;28;20959;-75
2022/10/07 05:53:19;;;;;;;5.90;5.20;;;;;;;;;;5043243;28;20521;-75
2022/10/07 05:55:45;;;;;;;6.90;5.67;;;;;;;;;;5042984;28;20421;-75
2022/10/07 05:58:12;;;;;;;8.37;5.83;;;;;;;;;;5045061;28;20483;-74
2022/10/07 06:00:41;;;;;;;6.77;5.00;;;;;;;;;;5041858;28;20487;-75
2022/10/07 06:03:07;;;;;;;7.33;4.90;;;;;;;;;;5045273;28;20595;-74
2022/10/07 06:05:33;;;;;;;11.10;5.73;;;;;;;;;;5023309;28;20470;-75
2022/10/07 06:07:59;;;;;;;13.03;5.90;;;;;;;;;;5044473;28;20706;-74
2022/10/07 06:13:10;;;;;;;12.57;6.27;;;;;;;;;;5037210;28;20490;-73
2022/10/07 06:15:36;;;;;;;15.67;6.07;;;;;;;;;;5023521;28;20730;-75
2022/10/07 06:18:03;;;;;;;6.40;5.77;;;;;;;;;;5043976;28;20429;-75
2022/10/07 06:20:29;;;;;;;17.00;6.30;;;;;;;;;;5040636;28;20532;-73
2022/10/07 06:22:57;;;;;;;9.53;5.93;;;;;;;;;;4346775;28;10000731;-74
2022/10/07 06:25:23;;;;;;;7.40;6.70;;;;;;;;;;5038085;28;21175;-75
2022/10/07 06:27:49;;;;;;;9.70;5.13;;;;;;;;;;5041370;28;20780;-73
2022/10/07 06:30:15;;;;;;;6.20;5.43;;;;;;;;;;5029549;28;20588;-73
2022/10/07 06:32:41;;;;;;;7.80;5.50;;;;;;;;;;5041015;28;20966;-75
2022/10/07 06:35:07;;;;;;;7.67;6.63;;;;;;;;;;5028897;28;20997;-74
2022/10/07 06:37:33;;;;;;;9.70;6.50;;;;;;;;;;5041142;28;21006;-73
2022/10/07 06:39:59;;;;;;;10.30;6.70;;;;;;;;;;5028894;28;20461;-73
2022/10/07 06:42:25;;;;;;;7.17;5.77;;;;;;;;;;5040760;28;20465;-74
2022/10/07 06:44:52;;;;;;;7.43;5.30;;;;;;;;;;5033881;28;20437;-75
2022/10/07 06:47:19;;;;;;;5.37;4.30;;;;;;;;;;5034835;28;20448;-74
2022/10/07 06:49:45;;;;;;;9.83;5.80;;;;;;;;;;5033562;28;20445;-75
2022/10/07 06:52:11;;;;;;;9.13;5.20;;;;;;;;;;5041090;28;20482;-75
2022/10/07 06:54:37;;;;;;;4.27;3.90;;;;;;;;;;5033764;28;20438;-74
2022/10/07 06:57:03;;;;;;;6.93;4.73;;;;;;;;;;5040020;28;20433;-74
2022/10/07 06:59:29;;;;;;;6.00;4.63;;;;;;;;;;5035316;28;20541;-75
2022/10/07 07:01:55;;;;;;;4.60;3.30;;;;;;;;;;5040832;28;20503;-73
2022/10/07 07:04:23;;;;;;;4.27;3.50;;;;;;;;;;5038629;28;20441;-73
2022/10/07 07:06:49;;;;;;;10.70;3.63;;;;;;;;;;5047551;28;20409;-74
2022/10/07 07:09:15;;;;;;;3.00;2.83;;;;;;;;;;5037142;28;20927;-75
2022/10/07 07:11:43;;;;;;;3.40;2.87;;;;;;;;;;5042952;28;20437;-74
2022/10/07 07:14:13;;;;;;;7.87;2.60;;;;;;;;;;5044788;28;20618;-75
2022/10/07 07:16:39;;;;;;;5.67;4.40;;;;;;;;;;5048236;28;20414;-75
2022/10/07 07:19:07;;;;;;;7.50;3.70;;;;;;;;;;5045117;28;20511;-75
2022/10/07 07:21:34;;;;;;;5.07;3.10;;;;;;;;;;5055018;28;20457;-76
2022/10/07 07:24:00;;;;;;;7.03;3.27;;;;;;;;;;5063267;28;20728;-76
2022/10/07 07:26:29;;;;;;;4.80;3.20;;;;;;;;;;5036547;28;20411;-77
2022/10/07 07:28:59;;;;;;;7.97;3.43;;;;;;;;;;5044287;28;20441;-79
2022/10/07 07:31:27;;;;;;;12.00;3.50;;;;;;;;;;5047970;28;20398;-75
2022/10/07 07:33:54;;;;;;;4.70;2.70;;;;;;;;;;5044485;28;20422;-79
2022/10/07 07:36:22;;;;;;;7.43;3.03;;;;;;;;;;5048255;28;20422;-77
2022/10/07 07:38:54;;;;;;;7.37;3.10;;;;;;;;;;5043548;28;20434;-76
2022/10/07 07:41:21;;;;;;;4.20;2.93;;;;;;;;;;5047770;28;20465;-76
2022/10/07 07:43:51;;;;;;;6.53;3.30;;;;;;;;;;5043762;28;20878;-76
2022/10/07 07:46:18;;;;;;;9.53;3.13;;;;;;;;;;5046155;28;20437;-76
2022/10/07 07:48:45;;;;;;;6.40;3.30;;;;;;;;;;5044852;28;20433;-75
2022/10/07 07:51:12;;;;;;;4.33;3.40;;;;;;;;;;5027731;28;20411;-77
2022/10/07 07:53:38;;;;;;;10.43;3.60;;;;;;;;;;5044771;28;20943;-75
2022/10/07 07:56:04;;;;;;;6.50;4.10;;;;;;;;;;5025017;28;20438;-75
2022/10/07 07:58:30;;;;;;;8.83;2.80;;;;;;;;;;5046270;28;20463;-76
2022/10/07 08:00:57;;;;;;;4.83;2.77;;;;;;;;;;5042099;28;20564;-75
2022/10/07 08:03:24;;;;;;;5.13;2.97;;;;;;;;;;5046712;28;20969;-75
2022/10/07 08:05:50;;;;;;;5.60;3.67;;;;;;;;;;5025914;28;20526;-74
2022/10/07 08:08:16;;;;;;;2.70;2.50;;;;;;;;;;5046155;28;20429;-77
2022/10/07 08:10:42;;;;;;;3.13;2.33;;;;;;;;;;5043427;28;20457;-76
2022/10/07 08:13:08;;;;;;;3.33;2.97;;;;;;;;;;5046614;28;20445;-75
2022/10/07 08:15:35;;;;;;;8.70;3.73;;;;;;;;;;5029020;28;20500;-76
2022/10/07 08:18:03;;;;;;;4.03;2.70;;;;;;;;;;5045950;28;20989;-77
2022/10/07 08:20:29;;;;;;;2.70;2.53;;;;;;;;;;5043543;28;21019;-75
2022/10/07 08:22:55;;;;;;;2.93;2.60;;;;;;;;;;5046545;28;20448;-75
2022/10/07 08:25:21;;;;;;;4.13;3.23;;;;;;;;;;5044278;28;20430;-77
2022/10/07 08:27:47;;;;;;;3.17;2.90;;;;;;;;;;5046327;28;20481;-77
2022/10/07 08:30:13;;;;;;;6.90;3.80;;;;;;;;;;5042732;28;20473;-76
2022/10/07 08:32:39;;;;;;;3.07;2.77;;;;;;;;;;5046362;28;20462;-75
2022/10/07 08:35:06;;;;;;;5.93;2.60;;;;;;;;;;5041976;28;20807;-74
2022/10/07 08:37:32;;;;;;;4.37;2.60;;;;;;;;;;5045617;28;20436;-76
2022/10/07 08:39:58;;;;;;;9.43;3.20;;;;;;;;;;5042060;28;20537;-76
2022/10/07 08:42:33;;;;;;;2.50;1.97;;;;;;;;;;5045645;28;20557;-77
2022/10/07 08:45:00;;;;;;;4.37;2.20;;;;;;;;;;5037799;28;20479;-77
2022/10/07 08:47:33;;;;;;;4.43;2.63;;;;;;;;;;5045746;28;20488;-77
2022/10/07 08:50:12;;;;;;;3.67;2.60;;;;;;;;;;5031767;28;20996;-77
2022/10/07 08:52:38;;;;;;;3.77;2.17;;;;;;;;;;5045964;28;20953;-76
2022/10/07 08:55:16;;;;;;;2.60;2.40;;;;;;;;;;5043437;28;20449;-77
2022/10/07 08:58:02;;;;;;;2.93;2.23;;;;;;;;;;5026125;28;20981;-77
2022/10/07 09:00:33;;;;;;;7.80;2.37;;;;;;;;;;5035444;28;20442;-77
2022/10/07 09:03:06;;;;;;;3.13;2.30;;;;;;;;;;4348227;28;10022445;-78
2022/10/07 09:05:37;;;;;;;3.20;2.30;;;;;;;;;;5031256;28;20199;-78
2022/10/07 09:08:06;;;;;;;3.23;2.30;;;;;;;;;;5035058;28;20418;-78
2022/10/07 09:10:41;;;;;;;2.93;2.33;;;;;;;;;;5032579;28;20494;-78
2022/10/07 09:13:11;;;;;;;3.23;2.83;;;;;;;;;;5042710;28;20572;-77
2022/10/07 09:16:13;;;;;;;4.47;2.43;;;;;;;;;;5032670;28;20485;-77
2022/10/07 09:18:40;;;;;;;3.90;2.50;;;;;;;;;;4948810;28;20695;-76
2022/10/07 09:21:11;;;;;;;6.17;2.73;;;;;;;;;;5021243;28;20485;-77
2022/10/07 09:23:38;;;;;;;5.20;2.20;;;;;;;;;;5038998;28;20433;-78
2022/10/07 09:26:11;;;;;;;3.03;1.80;;;;;;;;;;5031182;28;21024;-78
2022/10/07 09:28:37;;;;;;;2.73;2.47;;;;;;;;;;5043974;28;20792;-78
2022/10/07 09:31:03;;;;;;;3.40;2.20;;;;;;;;;;5026666;28;20435;-78
2022/10/07 09:33:29;;;;;;;4.17;1.80;;;;;;;;;;5045204;28;20477;-78
2022/10/07 09:35:57;;;;;;;2.80;2.00;;;;;;;;;;5047015;28;20457;-79
2022/10/07 09:38:30;;;;;;;3.40;2.40;;;;;;;;;;5061118;28;20426;-78
2022/10/07 09:41:16;;;;;;;6.40;3.57;;;;;;;;;;5046900;28;20470;-78
2022/10/07 09:43:52;;;;;;;2.90;2.10;;;;;;;;;;5038679;28;20421;-79
2022/10/07 09:46:29;;;;;;;10.30;3.70;;;;;;;;;;5036125;28;20487;-78
2022/10/07 09:48:55;;;;;;;7.10;2.83;;;;;;;;;;5025803;28;20799;-78
2022/10/07 09:51:25;;;;;;;5.60;2.57;;;;;;;;;;5041448;28;20437;-78
2022/10/07 09:54:03;;;;;;;5.13;2.50;;;;;;;;;;5045267;28;20407;-80
2022/10/07 09:56:34;;;;;;;9.00;2.90;;;;;;;;;;5043842;28;21051;-80
2022/10/07 09:59:15;;;;;;;6.10;2.63;;;;;;;;;;4693670;28;10000360;-78
2022/10/07 10:01:41;;;;;;;3.70;2.40;;;;;;;;;;5033634;28;20434;-79
2022/10/07 10:04:17;;;;;;;4.90;2.13;;;;;;;;;;5040661;28;20917;-81
2022/10/07 10:06:47;;;;;;;3.33;2.53;;;;;;;;;;5042437;28;20526;-79
2022/10/07 10:09:17;;;;;;;3.70;1.93;;;;;;;;;;5039987;28;20856;-80
2022/10/07 10:12:01;;;;;;;3.83;2.50;;;;;;;;;;5031812;28;20919;-79
2022/10/07 10:14:33;;;;;;;2.63;2.43;;;;;;;;;;5038936;28;20490;-80
2022/10/07 10:16:58;;;;;;;3.20;2.50;;;;;;;;;;5034331;28;20939;-79
2022/10/07 10:19:26;;;;;;;9.03;2.80;;;;;;;;;;5038219;28;20430;-79
2022/10/07 10:21:57;;;;;;;9.90;2.67;;;;;;;;;;5042218;28;20469;-79
2022/10/07 10:27:16;;;;;;;6.17;3.30;;;;;;;;;;5039519;28;20460;-78
2022/10/07 10:29:45;;;;;;;2.73;2.53;;;;;;;;;;5040089;28;20523;-80
2022/10/07 10:32:14;;;;;;;6.37;3.87;;;;;;;;;;5045110;28;20505;-77
2022/10/07 10:34:53;;;;;;;3.87;2.70;;;;;;;;;;5041084;28;20447;-78
2022/10/07 10:37:21;;;;;;;5.10;2.37;;;;;;;;;;5045439;28;20744;-78
2022/10/07 10:39:52;;;;;;;5.43;2.73;;;;;;;;;;5044575;28;20449;-79
2022/10/07 10:42:21;;;;;;;4.70;2.47;;;;;;;;;;5047740;28;20970;-78
2022/10/07 10:44:50;;;;;;;4.00;2.97;;;;;;;;;;5041007;28;20630;-76
2022/10/07 10:47:25;;;;;;;5.53;2.80;;;;;;;;;;5049314;28;20421;-76
2022/10/07 10:50:02;;;;;;;4.28;2.50;;;;;;;;;;4694618;28;9999756;-78
2022/10/07 10:52:37;;;;;;;5.10;3.60;;;;;;;;;;5038150;28;20246;-80
2022/10/07 10:55:22;;;;;;;3.87;3.20;;;;;;;;;;5042507;28;20417;-77
2022/10/07 10:57:57;;;;;;;4.30;2.30;;;;;;;;;;5046425;28;20456;-79
2022/10/07 11:00:23;;;;;;;5.33;2.23;;;;;;;;;;5043688;28;20802;-78
2022/10/07 11:03:08;;;;;;;2.20;2.00;;;;;;;;;;5048488;28;20417;-77
2022/10/07 11:05:35;;;;;;;4.83;2.30;;;;;;;;;;5044634;28;20779;-78
2022/10/07 11:08:11;;;;;;;3.53;3.13;;;;;;;;;;5047222;28;20424;-78
2022/10/07 11:10:41;;;;;;;5.50;2.73;;;;;;;;;;5032788;28;20469;-78
2022/10/07 11:13:14;;;;;;;3.10;2.40;;;;;;;;;;5047375;28;20869;-78
2022/10/07 11:16:00;;;;;;;5.27;2.60;;;;;;;;;;5045822;28;20544;-78
2022/10/07 11:18:29;;;;;;;4.50;2.60;;;;;;;;;;5016028;28;20792;-78
2022/10/07 11:20:56;;;;;;;5.90;2.37;;;;;;;;;;5032120;28;20462;-79
2022/10/07 11:23:25;;;;;;;8.80;2.50;;;;;;;;;;5047386;28;20961;-78
2022/10/07 11:25:59;;;;;;;4.43;2.27;;;;;;;;;;5043793;28;20548;-78
2022/10/07 11:28:26;;;;;;;2.17;1.80;;;;;;;;;;5027605;28;20414;-78
2022/10/07 11:30:56;;;;;;;9.53;3.20;;;;;;;;;;5048605;28;20441;-77
2022/10/07 11:33:27;;;;;;;7.50;4.63;;;;;;;;;;5048451;28;20426;-76
2022/10/07 11:35:56;;;;;;;3.13;2.60;;;;;;;;;;5036160;28;20491;-77
2022/10/07 11:38:27;;;;;;;5.00;2.53;;;;;;;;;;5047406;28;20499;-77
2022/10/07 11:40:56;;;;;;;2.50;2.30;;;;;;;;;;5035736;28;20471;-77
2022/10/07 11:43:24;;;;;;;3.13;1.67;;;;;;;;;;5047409;28;20462;-78
2022/10/07 11:45:53;;;;;;;3.77;1.90;;;;;;;;;;5040391;28;20457;-76
2022/10/07 11:48:21;;;;;;;4.50;2.20;;;;;;;;;;5047277;28;20473;-76
2022/10/07 11:51:14;;;;;;;4.80;2.30;;;;;;;;;;5033115;28;20992;-76
2022/10/07 11:53:40;;;;;;;4.93;2.27;;;;;;;;;;5005484;28;20850;-77
2022/10/07 11:56:19;;;;;;;4.10;2.37;;;;;;;;;;5050121;28;20438;-77
2022/10/07 11:58:47;;;;;;;6.47;2.47;;;;;;;;;;5064240;28;20437;-76
2022/10/07 12:01:37;;;;;;;3.13;2.37;;;;;;;;;;5051323;28;20487;-77
2022/10/07 12:04:21;;;;;;;5.23;2.80;;;;;;;;;;5022690;28;20695;-78
2022/10/07 12:07:14;;;;;;;7.10;2.70;;;;;;;;;;5043043;28;20429;-76
2022/10/07 12:10:07;;;;;;;3.03;2.70;;;;;;;;;;5018802;28;20471;-78
2022/10/07 12:12:43;;;;;;;3.27;2.40;;;;;;;;;;5046680;28;20920;-76
2022/10/07 12:15:26;;;;;;;2.27;1.97;;;;;;;;;;5042697;28;20445;-77
2022/10/07 12:17:53;;;;;;;5.10;3.53;;;;;;;;;;5046920;28;20429;-77
2022/10/07 12:20:36;;;;;;;9.47;4.10;;;;;;;;;;5043106;28;20814;-77
2022/10/07 12:23:28;;;;;;;4.90;2.40;;;;;;;;;;5045024;28;20430;-77
2022/10/07 12:25:54;;;;;;;7.70;2.70;;;;;;;;;;5033880;28;21003;-79
2022/10/07 12:28:26;;;;;;;3.72;2.50;;;;;;;;;;4341131;28;10000736;-77
2022/10/07 12:30:53;;;;;;;2.60;2.40;;;;;;;;;;5039449;28;20207;-76
2022/10/07 12:33:25;;;;;;;5.93;2.80;;;;;;;;;;5043669;28;20430;-75
2022/10/07 12:35:51;;;;;;;3.63;3.33;;;;;;;;;;5039904;28;20650;-77
2022/10/07 12:38:23;;;;;;;3.97;2.23;;;;;;;;;;5044312;28;20436;-77
2022/10/07 12:40:52;;;;;;;3.20;1.90;;;;;;;;;;5040389;28;20961;-76
2022/10/07 12:43:18;;;;;;;4.80;2.10;;;;;;;;;;5044352;28;20436;-76
2022/10/07 12:45:44;;;;;;;4.17;1.90;;;;;;;;;;5036532;28;20441;-77
2022/10/07 12:48:14;;;;;;;3.70;1.80;;;;;;;;;;5041299;28;20433;-79
2022/10/07 12:50:40;;;;;;;1.30;1.20;;;;;;;;;;5037956;28;20634;-76
2022/10/07 12:53:09;;;;;;;5.47;2.30;;;;;;;;;;5043118;28;20483;-77
2022/10/07 12:55:37;;;;;;;5.03;1.97;;;;;;;;;;5039318;28;20448;-76
2022/10/07 13:01:23;;;;;;;3.03;1.90;;;;;;;;;;5029366;28;20481;-77
2022/10/07 13:04:08;;;;;;;6.93;2.00;;;;;;;;;;5037908;28;20571;-78
2022/10/07 13:06:46;;;;;;;2.90;2.10;;;;;;;;;;5038755;28;20468;-78
2022/10/07 13:09:31;;;;;;;6.70;1.90;;;;;;;;;;5037215;28;20452;-78
2022/10/07 13:11:58;;;;;;;7.50;2.40;;;;;;;;;;5029222;28;20472;-79
2022/10/07 13:14:33;;;;;;;3.60;1.87;;;;;;;;;;5041162;28;20890;-76
2022/10/07 13:17:18;;;;;;;3.50;2.20;;;;;;;;;;5030137;28;20984;-78
2022/10/07 13:19:58;;;;;;;4.63;1.93;;;;;;;;;;5042603;28;20858;-79
2022/10/07 13:22:25;;;;;;;3.37;1.77;;;;;;;;;;5023753;28;20611;-79
2022/10/07 13:24:54;;;;;;;4.00;2.00;;;;;;;;;;5042693;28;20563;-79
2022/10/07 13:27:26;;;;;;;4.90;2.20;;;;;;;;;;5025772;28;20916;-79
2022/10/07 13:29:53;;;;;;;2.90;2.40;;;;;;;;;;5023995;28;20517;-80
2022/10/07 13:32:23;;;;;;;5.90;1.67;;;;;;;;;;5044036;28;20517;-79
2022/10/07 13:34:51;;;;;;;3.87;1.83;;;;;;;;;;5042980;28;20439;-78
2022/10/07 13:37:30;;;;;;;5.73;2.30;;;;;;;;;;5041785;28;20515;-79
2022/10/07 13:39:57;;;;;;;4.97;1.77;;;;;;;;;;5023066;28;20560;-79
2022/10/07 13:42:27;;;;;;;3.13;2.30;;;;;;;;;;5025410;28;20458;-78
2022/10/07 13:44:53;;;;;;;4.77;2.70;;;;;;;;;;5038101;28;20426;-77
2022/10/07 13:47:20;;;;;;;7.60;2.23;;;;;;;;;;5044551;28;20417;-81
2022/10/07 13:49:48;;;;;;;2.40;2.20;;;;;;;;;;5044916;28;20883;-77
2022/10/07 13:52:29;;;;;;;5.77;2.70;;;;;;;;;;5022521;28;20847;-76
2022/10/07 13:54:55;;;;;;;4.43;2.13;;;;;;;;;;5043570;28;20904;-77
2022/10/07 13:57:22;;;;;;;4.97;3.00;;;;;;;;;;5044387;28;20471;-77
2022/10/07 13:59:50;;;;;;;3.17;2.30;;;;;;;;;;5044625;28;20655;-77
2022/10/07 14:02:17;;;;;;;5.90;2.30;;;;;;;;;;5022627;28;20473;-77
2022/10/07 14:04:53;;;;;;;2.63;2.17;;;;;;;;;;5045624;28;20432;-77
2022/10/07 14:07:20;;;;;;;4.20;2.07;;;;;;;;;;5043094;28;20443;-76
2022/10/07 14:09:48;;;;;;;2.77;1.73;;;;;;;;;;5059579;28;20422;-76
2022/10/07 14:12:21;;;;;;;3.00;2.27;;;;;;;;;;5049379;28;20510;-76
2022/10/07 14:14:50;;;;;;;3.97;1.80;;;;;;;;;;5050651;28;20409;-75
2022/10/07 14:17:34;;;;;;;3.70;2.10;;;;;;;;;;5047814;28;20433;-76
2022/10/07 14:20:04;;;;;;;1.80;1.70;;;;;;;;;;5046440;28;20498;-76
2022/10/07 14:22:38;;;;;;;2.13;1.77;;;;;;;;;;5049135;28;20506;-76
2022/10/07 14:25:05;;;;;;;2.97;1.77;;;;;;;;;;5047373;28;20453;-77
2022/10/07 14:27:54;;;;;;;5.27;2.00;;;;;;;;;;5048692;28;20422;-77
2022/10/07 14:35:16;;;;;;;3.07;1.77;;;;;;;;;;5022301;28;21243;-78
2022/10/07 14:36:13;;;;;;;2.30;1.70;;;;;;;;;;5033782;28;20480;-77
2022/10/07 14:38:40;;;;;;;6.33;2.40;;;;;;;;;;5047613;28;20421;-75
2022/10/07 14:41:07;;;;;;;3.60;1.80;;;;;;;;;;5044587;28;20472;-78
2022/10/07 14:43:34;;;;;;;4.70;2.23;;;;;;;;;;5047694;28;20520;-78
2022/10/07 14:46:14;;;;;;;7.30;1.73;;;;;;;;;;5042533;28;20448;-77
2022/10/07 14:48:41;;;;;;;3.70;1.80;;;;;;;;;;5026690;28;20857;-76
2022/10/07 14:51:07;;;;;;;8.90;2.23;;;;;;;;;;5044054;28;20974;-77
2022/10/07 14:53:34;;;;;;;3.97;2.00;;;;;;;;;;5047534;28;20811;-77
2022/10/07 14:56:00;;;;;;;5.00;1.67;;;;;;;;;;5044638;28;20873;-77
2022/10/07 14:58:26;;;;;;;4.37;1.63;;;;;;;;;;5047791;28;20398;-76
2022/10/07 15:00:52;;;;;;;3.40;2.20;;;;;;;;;;5044218;28;20498;-77
2022/10/07 15:03:18;;;;;;;2.87;1.63;;;;;;;;;;5047871;28;20477;-77
2022/10/07 15:05:44;;;;;;;4.57;1.87;;;;;;;;;;5041350;28;20934;-77
2022/10/07 15:08:11;;;;;;;4.87;2.17;;;;;;;;;;5047357;28;20508;-75
2022/10/07 15:10:40;;;;;;;4.93;1.97;;;;;;;;;;4341359;28;10000733;-76